Time;durP1;ratioP1;P1;durP2;ratioP2;P2;SDS_P1;SDS_P2;PMS_P1;PMS_P2;Temp;Humidity;BMP_temperature;BMP_pressure;BME280_temperature;BME280_humidity;BME280_pressure;Samples;Min_cycle;Max_cycle;Signal;HPM_P1;HPM_P2
2022/01/16 00:00:07;;;;;;;47.70;27.35;;;3.00;99.90;;;;;;5121190;27;20051;-77
2022/01/16 00:05:08;;;;;;;55.65;29.05;;;3.00;99.90;;;;;;5129624;27;20055;-77
2022/01/16 00:07:35;;;;;;;61.20;30.30;;;2.90;99.90;;;;;;5124686;27;20068;-77
2022/01/16 00:10:02;;;;;;;57.65;27.05;;;3.00;99.90;;;;;;5122947;27;20039;-77
2022/01/16 00:12:29;;;;;;;46.88;25.60;;;3.00;99.90;;;;;;5139361;27;20073;-76
2022/01/16 00:14:55;;;;;;;54.63;28.38;;;2.90;99.90;;;;;;5120163;27;20092;-77
2022/01/16 00:17:23;;;;;;;55.90;27.52;;;2.70;99.90;;;;;;5129215;27;20057;-76
2022/01/16 00:19:50;;;;;;;47.38;26.02;;;2.70;99.90;;;;;;5127099;27;20389;-76
2022/01/16 00:22:16;;;;;;;57.90;27.75;;;2.70;99.90;;;;;;5146892;27;20130;-77
2022/01/16 00:24:43;;;;;;;52.95;28.40;;;2.70;99.90;;;;;;5125636;27;20058;-77
2022/01/16 00:27:10;;;;;;;51.35;26.85;;;2.60;99.90;;;;;;5145873;27;20058;-76
2022/01/16 00:29:36;;;;;;;57.47;29.02;;;2.60;99.90;;;;;;5141348;27;20047;-76
2022/01/16 00:32:03;;;;;;;52.90;27.52;;;2.50;99.90;;;;;;5131493;27;20050;-77
2022/01/16 00:34:29;;;;;;;49.53;28.17;;;2.40;99.90;;;;;;5124672;28;20043;-76
2022/01/16 00:36:56;;;;;;;51.47;27.23;;;2.40;99.90;;;;;;5145258;27;20051;-77
2022/01/16 00:39:22;;;;;;;63.03;31.08;;;2.40;99.90;;;;;;5133583;27;20051;-77
2022/01/16 00:41:49;;;;;;;60.50;32.50;;;2.30;99.90;;;;;;5145070;27;20055;-77
2022/01/16 00:44:15;;;;;;;60.28;32.50;;;2.40;99.90;;;;;;5144209;27;20051;-77
2022/01/16 00:46:42;;;;;;;59.15;29.73;;;2.30;99.90;;;;;;5126714;27;20039;-77
2022/01/16 00:49:08;;;;;;;65.25;29.55;;;2.30;99.90;;;;;;5129937;27;20051;-75
2022/01/16 00:51:35;;;;;;;64.70;31.92;;;2.30;99.90;;;;;;5122584;27;20427;-76
2022/01/16 00:54:01;;;;;;;58.33;30.17;;;2.40;99.90;;;;;;5142686;27;20050;-77
2022/01/16 00:56:28;;;;;;;53.78;29.73;;;2.40;99.90;;;;;;5129051;27;20482;-76
2022/01/16 00:58:55;;;;;;;58.63;31.55;;;2.30;99.90;;;;;;5127655;27;20043;-77
2022/01/16 01:01:21;;;;;;;66.00;31.00;;;2.30;99.90;;;;;;5127745;27;20058;-76
2022/01/16 01:03:48;;;;;;;58.35;29.75;;;2.20;99.90;;;;;;5141412;27;20053;-77
2022/01/16 01:06:14;;;;;;;61.55;29.55;;;2.20;99.90;;;;;;5144510;27;20058;-76
2022/01/16 01:08:41;;;;;;;57.50;33.08;;;2.20;99.90;;;;;;5139769;27;20047;-77
2022/01/16 01:11:12;;;;;;;70.07;33.80;;;2.20;99.90;;;;;;5124365;27;20047;-77
2022/01/16 01:16:19;;;;;;;66.57;34.75;;;2.10;99.90;;;;;;5105685;27;20049;-75
2022/01/16 01:18:46;;;;;;;63.80;32.38;;;2.20;99.90;;;;;;5124566;27;20051;-76
2022/01/16 01:21:26;;;;;;;76.05;35.30;;;2.10;99.90;;;;;;5150073;27;20047;-76
2022/01/16 01:23:53;;;;;;;71.97;31.42;;;2.20;99.90;;;;;;5155537;27;20481;-76
2022/01/16 01:26:24;;;;;;;71.38;35.28;;;2.10;99.90;;;;;;5125667;27;20043;-76
2022/01/16 01:28:51;;;;;;;64.65;31.50;;;2.00;99.90;;;;;;5145727;27;20047;-75
2022/01/16 01:31:17;;;;;;;63.17;33.63;;;2.00;99.90;;;;;;5143192;27;20047;-75
2022/01/16 01:33:44;;;;;;;58.28;30.70;;;1.90;99.90;;;;;;5155702;27;20053;-75
2022/01/16 01:36:10;;;;;;;77.32;31.58;;;1.90;99.90;;;;;;5119187;27;20058;-77
2022/01/16 01:38:37;;;;;;;77.10;34.10;;;1.90;99.90;;;;;;5120955;27;20053;-76
2022/01/16 01:41:04;;;;;;;75.60;34.53;;;1.80;99.90;;;;;;5126999;27;20065;-77
2022/01/16 01:51:42;;;;;;;66.55;33.05;;;1.70;99.90;;;;;;5151084;27;20043;-77
2022/01/16 01:54:09;;;;;;;62.38;30.70;;;1.60;99.90;;;;;;5121027;27;20431;-76
2022/01/16 01:56:37;;;;;;;66.25;33.78;;;1.60;99.90;;;;;;5140737;27;20051;-76
2022/01/16 01:59:03;;;;;;;65.43;32.30;;;1.60;99.90;;;;;;5144045;27;20096;-77
2022/01/16 02:01:30;;;;;;;72.90;33.97;;;1.60;99.90;;;;;;5124312;27;20062;-76
2022/01/16 02:03:56;;;;;;;75.97;34.00;;;1.60;99.90;;;;;;5146900;27;20057;-76
2022/01/16 02:06:23;;;;;;;73.38;37.85;;;1.60;99.90;;;;;;5125166;27;20051;-76
2022/01/16 02:08:50;;;;;;;75.90;37.35;;;1.50;99.90;;;;;;5123584;27;20051;-76
2022/01/16 02:11:16;;;;;;;78.95;34.50;;;1.60;99.90;;;;;;5123916;27;20046;-75
2022/01/16 02:13:52;;;;;;;72.65;34.85;;;1.60;99.90;;;;;;5119829;27;20050;-76
2022/01/16 02:33:11;;;;;;;65.13;32.70;;;1.40;99.90;;;;;;5141924;27;20043;-76
2022/01/16 02:35:35;;;;;;;59.17;32.35;;;1.40;99.90;;;;;;5141208;27;20127;-76
2022/01/16 02:38:04;;;;;;;70.32;33.45;;;1.50;99.90;;;;;;5153745;27;20090;-76
2022/01/16 02:40:31;;;;;;;60.88;31.00;;;1.40;99.90;;;;;;5146345;27;20383;-76
2022/01/16 02:42:57;;;;;;;59.17;31.35;;;1.40;99.90;;;;;;5125915;27;20073;-76
2022/01/16 02:45:31;;;;;;;62.60;29.52;;;1.40;99.90;;;;;;5115549;27;20094;-77
2022/01/16 02:47:58;;;;;;;62.45;31.95;;;1.40;99.90;;;;;;5148551;27;20058;-76
2022/01/16 02:50:24;;;;;;;71.40;35.70;;;1.30;99.90;;;;;;5135182;27;20047;-77
2022/01/16 02:52:51;;;;;;;66.97;35.17;;;1.40;99.90;;;;;;5139360;27;20043;-77
2022/01/16 02:55:20;;;;;;;62.75;32.92;;;1.40;99.90;;;;;;5133842;27;20047;-77
2022/01/16 02:57:46;;;;;;;67.85;34.22;;;1.40;99.90;;;;;;5143457;27;21054;-76
2022/01/16 03:00:13;;;;;;;72.82;34.25;;;1.30;99.90;;;;;;5151743;27;20038;-77
2022/01/16 03:02:39;;;;;;;68.78;34.30;;;1.40;99.90;;;;;;5129722;27;20046;-75
2022/01/16 03:05:06;;;;;;;67.93;36.95;;;1.40;99.90;;;;;;5142200;27;20051;-76
2022/01/16 03:07:32;;;;;;;86.32;38.45;;;1.40;99.90;;;;;;5144595;27;20465;-75
2022/01/16 03:10:06;;;;;;;74.20;37.90;;;1.40;99.90;;;;;;5129649;27;20042;-75
2022/01/16 03:12:32;;;;;;;75.55;36.53;;;1.40;99.90;;;;;;5115754;27;20060;-76
2022/01/16 03:14:59;;;;;;;81.28;39.05;;;1.40;99.90;;;;;;5150940;27;20051;-76
2022/01/16 03:17:37;;;;;;;70.97;36.95;;;1.50;99.90;;;;;;5125266;27;20051;-76
2022/01/16 03:22:47;;;;;;;70.60;36.28;;;1.40;99.90;;;;;;5153878;27;20408;-76
2022/01/16 03:25:16;;;;;;;70.65;34.95;;;1.40;99.90;;;;;;5134917;27;20047;-77
2022/01/16 03:27:42;;;;;;;75.40;35.03;;;1.40;99.90;;;;;;5150609;27;20039;-75
2022/01/16 03:30:10;;;;;;;80.95;37.63;;;1.40;99.90;;;;;;5141641;27;20051;-76
2022/01/16 03:32:37;;;;;;;88.40;38.38;;;1.40;99.90;;;;;;5152961;27;20451;-76
2022/01/16 03:35:03;;;;;;;100.55;39.88;;;1.40;99.90;;;;;;5140699;27;20047;-76
2022/01/16 03:37:30;;;;;;;85.45;38.78;;;1.40;99.90;;;;;;5152320;27;20054;-76
2022/01/16 03:39:57;;;;;;;89.70;40.05;;;1.30;99.90;;;;;;5151184;27;20035;-76
2022/01/16 03:42:28;;;;;;;94.28;42.13;;;1.30;99.90;;;;;;5153100;27;20107;-76
2022/01/16 03:44:54;;;;;;;86.53;40.35;;;1.30;99.90;;;;;;5143575;27;20047;-76
2022/01/16 03:47:21;;;;;;;94.18;41.97;;;1.40;99.90;;;;;;5127747;27;20095;-76
2022/01/16 03:49:47;;;;;;;92.72;39.92;;;1.40;99.90;;;;;;5146509;27;20043;-77
2022/01/16 03:52:14;;;;;;;102.97;45.15;;;1.30;99.90;;;;;;5124817;27;20049;-76
2022/01/16 03:54:40;;;;;;;88.47;42.15;;;1.30;99.90;;;;;;5137985;27;20053;-76
2022/01/16 03:57:07;;;;;;;106.20;43.63;;;1.30;99.90;;;;;;5141632;27;20050;-76
2022/01/16 03:59:33;;;;;;;102.85;41.40;;;1.40;99.90;;;;;;5137648;27;20047;-75
2022/01/16 04:02:00;;;;;;;100.90;44.85;;;1.40;99.90;;;;;;5145237;27;20043;-76
2022/01/16 04:04:27;;;;;;;99.00;41.50;;;1.40;99.90;;;;;;5115001;27;20055;-75
2022/01/16 04:06:53;;;;;;;101.25;44.35;;;1.40;99.90;;;;;;5149704;27;20054;-76
2022/01/16 04:09:20;;;;;;;100.72;44.17;;;1.40;99.90;;;;;;5142050;27;20058;-76
2022/01/16 04:11:52;;;;;;;123.82;46.33;;;1.40;99.90;;;;;;5146299;27;20073;-77
2022/01/16 04:14:23;;;;;;;111.30;45.53;;;1.40;99.90;;;;;;5133387;27;20134;-77
2022/01/16 04:16:50;;;;;;;120.88;46.65;;;1.40;99.90;;;;;;5115278;27;20046;-76
2022/01/16 04:19:16;;;;;;;119.35;46.83;;;1.50;99.90;;;;;;5125751;27;20401;-77
2022/01/16 04:21:43;;;;;;;128.20;51.33;;;1.40;99.90;;;;;;5150608;27;20053;-76
2022/01/16 04:24:09;;;;;;;116.90;46.78;;;1.40;99.90;;;;;;5150367;27;20043;-76
2022/01/16 04:26:36;;;;;;;114.68;49.72;;;1.40;99.90;;;;;;5144592;27;20054;-76
2022/01/16 04:29:02;;;;;;;120.80;49.85;;;1.40;99.90;;;;;;5134820;27;20043;-75
2022/01/16 04:31:29;;;;;;;125.70;48.17;;;1.40;99.90;;;;;;5145803;27;20050;-76
2022/01/16 04:33:55;;;;;;;139.68;50.38;;;1.50;99.90;;;;;;5139707;27;20042;-75
2022/01/16 04:36:22;;;;;;;131.48;53.63;;;1.50;99.90;;;;;;5131628;27;20112;-77
2022/01/16 04:38:50;;;;;;;123.10;49.65;;;1.50;99.90;;;;;;5147665;27;20054;-76
2022/01/16 04:44:01;;;;;;;132.55;49.53;;;1.50;99.90;;;;;;5133300;27;20047;-79
2022/01/16 04:46:28;;;;;;;124.47;46.47;;;1.50;99.90;;;;;;5138540;27;20490;-75
2022/01/16 04:48:54;;;;;;;118.65;49.25;;;1.60;99.90;;;;;;5135208;27;20180;-75
2022/01/16 04:51:21;;;;;;;108.97;47.30;;;1.60;99.90;;;;;;5144923;27;20498;-78
2022/01/16 04:53:48;;;;;;;126.15;48.80;;;1.60;99.90;;;;;;5143245;27;20073;-76
2022/01/16 04:56:14;;;;;;;121.13;46.63;;;1.70;99.90;;;;;;5137328;27;20051;-76
2022/01/16 04:58:41;;;;;;;128.07;48.05;;;1.60;99.90;;;;;;5135650;27;20042;-76
2022/01/16 05:01:07;;;;;;;126.75;47.05;;;1.70;99.90;;;;;;5149907;27;20046;-76
2022/01/16 05:03:34;;;;;;;115.60;46.80;;;1.70;99.90;;;;;;5120731;28;20070;-76
2022/01/16 05:06:00;;;;;;;133.52;47.10;;;1.70;99.90;;;;;;5120026;27;20394;-76
2022/01/16 05:08:28;;;;;;;104.90;45.35;;;1.70;99.90;;;;;;5138316;27;20505;-77
2022/01/16 05:10:55;;;;;;;120.68;50.75;;;1.70;99.90;;;;;;5132600;27;20043;-77
2022/01/16 05:16:34;;;;;;;114.75;48.08;;;1.80;99.90;;;;;;5134018;27;20046;-77
2022/01/16 05:19:01;;;;;;;120.15;48.47;;;1.80;99.90;;;;;;5121884;28;20051;-76
2022/01/16 05:21:27;;;;;;;131.35;49.50;;;1.80;99.90;;;;;;5113176;28;20051;-77
2022/01/16 05:23:54;;;;;;;120.10;48.97;;;1.90;99.90;;;;;;5144419;27;20046;-76
2022/01/16 05:26:26;;;;;;;115.57;49.33;;;1.90;99.90;;;;;;5150742;27;20051;-76
2022/01/16 05:28:52;;;;;;;118.25;48.92;;;1.90;99.90;;;;;;5142302;27;20051;-76
2022/01/16 05:31:19;;;;;;;139.73;49.55;;;1.90;99.90;;;;;;5151152;27;20043;-76
2022/01/16 05:33:45;;;;;;;123.25;50.30;;;1.90;99.90;;;;;;5126154;27;20046;-76
2022/01/16 05:36:12;;;;;;;118.05;47.85;;;2.00;99.90;;;;;;5123935;27;20059;-76
2022/01/16 05:38:38;;;;;;;126.97;47.20;;;2.00;99.90;;;;;;5135435;27;20402;-76
2022/01/16 05:41:05;;;;;;;126.00;51.47;;;2.00;99.90;;;;;;5135444;27;20383;-76
2022/01/16 05:43:32;;;;;;;126.57;48.88;;;2.00;99.90;;;;;;5142233;27;20413;-75
2022/01/16 05:45:58;;;;;;;113.65;47.85;;;2.10;99.90;;;;;;5131249;27;20058;-75
2022/01/16 05:48:26;;;;;;;132.57;51.60;;;2.10;99.90;;;;;;5135503;27;20047;-76
2022/01/16 05:50:52;;;;;;;122.07;49.55;;;2.10;99.90;;;;;;5135402;27;20467;-75
2022/01/16 05:53:19;;;;;;;124.18;53.58;;;2.10;99.90;;;;;;5140738;27;20055;-76
2022/01/16 05:55:45;;;;;;;138.98;53.50;;;2.10;99.90;;;;;;5141104;27;20065;-76
2022/01/16 05:58:12;;;;;;;139.00;49.90;;;2.20;99.90;;;;;;5130101;27;20051;-76
2022/01/16 06:00:38;;;;;;;125.47;50.95;;;2.20;99.90;;;;;;5136333;27;20054;-77
2022/01/16 06:03:05;;;;;;;132.93;54.35;;;2.20;99.90;;;;;;5120495;27;20059;-76
2022/01/16 06:05:31;;;;;;;135.70;52.10;;;2.20;99.90;;;;;;5116373;27;20414;-76
2022/01/16 06:08:00;;;;;;;142.02;52.63;;;2.20;99.90;;;;;;5152237;27;20524;-75
2022/01/16 06:10:27;;;;;;;127.95;52.95;;;2.30;99.90;;;;;;5123095;27;20130;-76
2022/01/16 06:12:53;;;;;;;145.45;53.70;;;2.30;99.90;;;;;;5118932;27;20486;-76
2022/01/16 06:15:20;;;;;;;139.70;53.05;;;2.30;99.90;;;;;;5135631;27;20047;-76
2022/01/16 06:17:46;;;;;;;130.25;53.47;;;2.30;99.90;;;;;;5142756;27;20054;-76
2022/01/16 06:20:14;;;;;;;125.05;50.75;;;2.30;99.90;;;;;;5129440;27;20055;-76
2022/01/16 06:22:40;;;;;;;133.30;51.08;;;2.30;99.90;;;;;;5146350;27;20439;-76
2022/01/16 06:25:07;;;;;;;137.57;50.58;;;2.40;99.90;;;;;;5124311;27;20046;-76
2022/01/16 06:27:34;;;;;;;130.15;51.67;;;2.40;99.90;;;;;;5142707;27;20069;-77
2022/01/16 06:30:00;;;;;;;150.63;49.03;;;2.40;99.90;;;;;;5150282;27;20065;-76
2022/01/16 06:32:27;;;;;;;127.32;50.25;;;2.40;99.90;;;;;;5154757;27;20417;-77
2022/01/16 06:34:53;;;;;;;140.98;51.70;;;2.40;99.90;;;;;;5136766;27;20083;-76
2022/01/16 06:37:20;;;;;;;119.43;50.08;;;2.50;99.90;;;;;;5126317;27;20065;-76
2022/01/16 06:39:46;;;;;;;136.57;53.35;;;2.50;99.90;;;;;;5131836;27;20058;-74
2022/01/16 06:42:13;;;;;;;140.65;54.47;;;2.50;99.90;;;;;;5143019;27;20043;-76
2022/01/16 06:44:39;;;;;;;127.60;52.55;;;2.50;99.90;;;;;;5131263;27;20409;-75
2022/01/16 06:47:06;;;;;;;137.80;52.70;;;2.50;99.90;;;;;;5151971;27;20619;-76
2022/01/16 06:49:32;;;;;;;147.32;51.15;;;2.60;99.90;;;;;;5130832;27;20058;-79
2022/01/16 06:51:59;;;;;;;138.85;53.85;;;2.60;99.90;;;;;;5133175;27;20054;-76
2022/01/16 06:54:25;;;;;;;137.82;50.10;;;2.60;99.90;;;;;;5150761;27;20054;-76
2022/01/16 06:56:52;;;;;;;125.70;48.63;;;2.60;99.90;;;;;;5150521;27;20043;-75
2022/01/16 06:59:19;;;;;;;126.55;53.30;;;2.60;99.90;;;;;;5131675;27;20047;-76
2022/01/16 07:01:45;;;;;;;112.00;50.13;;;2.60;99.90;;;;;;5147527;27;20058;-77
2022/01/16 07:04:12;;;;;;;118.25;49.80;;;2.70;99.90;;;;;;5150426;27;20540;-76
2022/01/16 07:06:38;;;;;;;120.47;48.05;;;2.70;99.90;;;;;;5150147;27;20038;-76
2022/01/16 07:09:05;;;;;;;124.72;52.88;;;2.70;99.90;;;;;;5129915;27;20062;-75
2022/01/16 07:11:31;;;;;;;132.07;54.45;;;2.80;99.90;;;;;;5151080;27;20492;-76
2022/01/16 07:13:58;;;;;;;128.90;50.33;;;2.80;99.90;;;;;;5149684;27;20061;-76
2022/01/16 07:16:24;;;;;;;112.95;48.75;;;2.80;99.90;;;;;;5151352;27;20069;-76
2022/01/16 07:18:51;;;;;;;140.93;52.22;;;2.80;99.90;;;;;;5150980;27;20061;-75
2022/01/16 07:21:17;;;;;;;133.73;49.08;;;2.80;99.90;;;;;;5131216;27;20454;-76
2022/01/16 07:23:44;;;;;;;141.10;56.22;;;2.80;99.90;;;;;;5150681;27;20445;-76
2022/01/16 07:26:11;;;;;;;128.85;52.72;;;2.80;99.90;;;;;;5129846;27;20492;-76
2022/01/16 07:28:37;;;;;;;121.88;49.47;;;2.80;99.90;;;;;;5130754;27;20481;-76
2022/01/16 07:31:04;;;;;;;134.27;51.72;;;2.80;99.90;;;;;;5130673;27;20039;-76
2022/01/16 07:33:31;;;;;;;131.77;51.15;;;2.80;99.90;;;;;;5130328;27;20038;-76
2022/01/16 07:35:57;;;;;;;141.90;50.03;;;2.90;99.90;;;;;;5147843;27;20042;-76
2022/01/16 07:38:24;;;;;;;125.72;49.45;;;2.90;99.90;;;;;;5131698;27;20053;-76
2022/01/16 07:40:50;;;;;;;112.05;47.35;;;2.90;99.90;;;;;;5150827;27;20046;-76
2022/01/16 07:43:17;;;;;;;110.30;47.58;;;2.90;99.90;;;;;;5132034;27;20050;-77
2022/01/16 07:45:43;;;;;;;144.15;53.58;;;3.00;99.90;;;;;;5151123;27;20458;-76
2022/01/16 07:48:10;;;;;;;120.90;49.30;;;3.00;99.90;;;;;;5151224;27;20154;-75
2022/01/16 07:50:36;;;;;;;120.60;50.75;;;3.00;99.90;;;;;;5129269;27;20047;-77
2022/01/16 07:53:03;;;;;;;124.68;49.38;;;3.00;99.90;;;;;;5132976;27;20072;-76
2022/01/16 07:55:29;;;;;;;121.40;51.40;;;3.00;99.90;;;;;;5151119;27;20050;-75
2022/01/16 07:57:56;;;;;;;133.43;54.70;;;3.10;99.90;;;;;;5149674;27;20042;-77
2022/01/16 08:00:22;;;;;;;121.85;50.38;;;3.10;99.90;;;;;;5131518;27;20043;-75
2022/01/16 08:02:49;;;;;;;124.05;52.70;;;3.10;99.90;;;;;;5131881;27;20038;-77
2022/01/16 08:05:16;;;;;;;131.63;51.83;;;3.10;99.90;;;;;;5151735;27;20051;-77
2022/01/16 08:07:42;;;;;;;138.23;51.47;;;3.20;99.90;;;;;;5130317;27;20050;-77
2022/01/16 08:10:09;;;;;;;133.43;53.47;;;3.20;99.90;;;;;;5151697;27;20049;-76
2022/01/16 08:12:36;;;;;;;138.73;56.60;;;3.30;99.90;;;;;;5149786;27;20049;-75
2022/01/16 08:15:02;;;;;;;115.25;52.72;;;3.30;99.90;;;;;;5130906;27;20497;-76
2022/01/16 08:17:29;;;;;;;129.82;55.90;;;3.40;99.90;;;;;;5131390;27;20043;-76
2022/01/16 08:19:55;;;;;;;123.13;52.65;;;3.40;99.90;;;;;;5148250;27;20406;-77
2022/01/16 08:22:22;;;;;;;137.50;58.42;;;3.40;99.90;;;;;;5132179;27;20047;-77
2022/01/16 08:24:48;;;;;;;148.55;59.78;;;3.40;99.90;;;;;;5150164;27;20050;-77
2022/01/16 08:27:15;;;;;;;129.10;54.58;;;3.40;99.90;;;;;;5151433;27;20375;-77
2022/01/16 08:29:41;;;;;;;142.57;56.72;;;3.50;99.90;;;;;;5151937;27;20050;-77
2022/01/16 08:32:08;;;;;;;141.18;57.13;;;3.50;99.90;;;;;;5149693;27;20047;-75
2022/01/16 08:34:34;;;;;;;132.40;55.47;;;3.50;99.90;;;;;;5133241;27;20043;-75
2022/01/16 08:37:01;;;;;;;133.93;61.45;;;3.60;99.90;;;;;;5147986;27;20847;-76
2022/01/16 08:39:27;;;;;;;133.55;59.22;;;3.60;99.90;;;;;;5150955;27;20054;-76
2022/01/16 08:41:54;;;;;;;135.73;57.95;;;3.70;99.90;;;;;;5132648;27;20047;-77
2022/01/16 08:44:21;;;;;;;137.45;60.40;;;3.70;99.90;;;;;;5150349;27;20502;-76
2022/01/16 08:46:47;;;;;;;127.05;59.70;;;3.70;99.90;;;;;;5150162;27;20043;-77
2022/01/16 08:49:14;;;;;;;138.15;60.75;;;3.70;99.90;;;;;;5133964;27;20051;-77
2022/01/16 08:51:40;;;;;;;126.47;55.45;;;3.80;99.90;;;;;;5131672;27;20046;-77
2022/01/16 08:54:07;;;;;;;122.10;57.78;;;3.90;99.90;;;;;;5149800;27;20047;-76
2022/01/16 08:56:33;;;;;;;127.10;56.38;;;3.80;99.90;;;;;;5151240;27;20050;-76
2022/01/16 08:59:00;;;;;;;120.25;56.45;;;3.90;99.90;;;;;;5125189;27;20058;-75
2022/01/16 09:01:26;;;;;;;128.85;57.63;;;3.90;99.90;;;;;;5146857;27;20053;-76
2022/01/16 09:03:53;;;;;;;115.63;56.30;;;4.00;99.90;;;;;;5125676;27;20379;-77
2022/01/16 09:06:21;;;;;;;133.68;61.05;;;4.00;99.90;;;;;;5146134;27;20725;-77
2022/01/16 09:08:47;;;;;;;126.78;58.15;;;4.10;99.90;;;;;;5123106;27;20051;-77
2022/01/16 09:11:14;;;;;;;139.32;63.35;;;4.10;99.90;;;;;;5144229;27;20057;-77
2022/01/16 09:13:41;;;;;;;115.25;56.45;;;4.10;99.90;;;;;;5133172;27;20051;-77
2022/01/16 09:16:07;;;;;;;125.85;57.55;;;4.20;99.90;;;;;;5143686;27;20054;-77
2022/01/16 09:18:34;;;;;;;129.30;58.42;;;4.20;99.90;;;;;;5136400;27;20051;-77
2022/01/16 09:21:01;;;;;;;107.57;50.33;;;4.30;99.90;;;;;;5141933;27;20051;-77
2022/01/16 09:23:28;;;;;;;132.40;55.50;;;4.30;99.90;;;;;;5126010;27;20051;-77
2022/01/16 09:25:54;;;;;;;112.40;51.85;;;4.30;99.90;;;;;;5133463;27;20047;-77
2022/01/16 09:28:21;;;;;;;115.88;53.35;;;4.30;99.90;;;;;;5114702;27;20059;-77
2022/01/16 09:30:47;;;;;;;96.70;49.65;;;4.40;99.90;;;;;;5140769;27;20054;-77
2022/01/16 09:33:15;;;;;;;97.10;49.42;;;4.50;99.90;;;;;;5128895;27;20054;-77
2022/01/16 09:35:42;;;;;;;105.50;49.10;;;4.50;99.90;;;;;;5136951;27;20497;-77
2022/01/16 09:38:08;;;;;;;99.63;47.28;;;4.60;99.90;;;;;;5122326;27;20047;-77
2022/01/16 09:40:35;;;;;;;88.90;43.03;;;4.60;99.90;;;;;;5128570;27;20058;-77
2022/01/16 09:43:02;;;;;;;93.80;44.25;;;4.70;99.90;;;;;;5145186;27;20058;-77
2022/01/16 09:45:28;;;;;;;82.10;44.90;;;4.70;99.90;;;;;;5140965;27;20039;-77
2022/01/16 09:47:55;;;;;;;86.40;42.15;;;4.80;99.90;;;;;;5141635;27;20047;-77
2022/01/16 09:50:21;;;;;;;88.43;42.70;;;4.90;99.90;;;;;;5132098;27;20057;-77
2022/01/16 09:52:48;;;;;;;92.78;45.35;;;4.90;99.90;;;;;;5115938;27;20046;-77
2022/01/16 09:55:14;;;;;;;84.63;40.97;;;4.90;99.90;;;;;;5141788;27;20062;-77
2022/01/16 09:57:41;;;;;;;97.60;42.88;;;5.00;99.90;;;;;;5150179;27;20508;-77
2022/01/16 10:00:07;;;;;;;79.15;41.22;;;5.10;99.90;;;;;;5137139;27;20519;-77
2022/01/16 10:02:34;;;;;;;81.15;40.63;;;5.10;99.90;;;;;;5141182;27;20062;-77
2022/01/16 10:05:00;;;;;;;81.07;41.10;;;5.10;99.90;;;;;;5125005;27;20047;-77
2022/01/16 10:07:27;;;;;;;70.75;37.08;;;5.20;99.90;;;;;;5140210;27;20050;-76
2022/01/16 10:09:53;;;;;;;72.47;35.63;;;5.30;99.90;;;;;;5125164;27;20051;-77
2022/01/16 10:12:20;;;;;;;66.65;35.63;;;5.30;99.90;;;;;;5137798;27;20054;-77
2022/01/16 10:14:49;;;;;;;78.90;37.55;;;5.40;99.90;;;;;;5147199;27;20046;-77
2022/01/16 10:17:16;;;;;;;55.95;34.13;;;5.50;99.90;;;;;;5143620;27;20455;-77
2022/01/16 10:19:42;;;;;;;70.05;33.38;;;5.60;99.90;;;;;;5129620;27;20405;-77
2022/01/16 10:22:09;;;;;;;79.05;34.08;;;5.60;99.90;;;;;;5148086;27;20208;-77
2022/01/16 10:24:35;;;;;;;69.25;35.70;;;5.70;99.90;;;;;;5150394;27;20050;-77
2022/01/16 10:27:02;;;;;;;74.78;35.05;;;5.70;99.90;;;;;;5148799;27;20812;-77
2022/01/16 10:29:28;;;;;;;57.40;30.98;;;5.70;99.90;;;;;;5147027;27;20043;-77
2022/01/16 10:31:55;;;;;;;59.53;34.83;;;5.70;99.90;;;;;;5150027;27;20047;-77
2022/01/16 10:34:21;;;;;;;61.95;33.67;;;5.80;99.90;;;;;;5131013;27;20054;-77
2022/01/16 10:36:48;;;;;;;63.28;34.63;;;5.80;99.90;;;;;;5129924;27;20058;-77
2022/01/16 10:39:14;;;;;;;70.78;32.88;;;5.80;99.90;;;;;;5128388;27;20061;-77
2022/01/16 10:41:41;;;;;;;58.78;32.78;;;5.70;99.90;;;;;;5121520;27;20059;-77
2022/01/16 10:44:07;;;;;;;60.45;35.05;;;5.70;99.90;;;;;;5137270;27;20047;-76
2022/01/16 10:46:34;;;;;;;64.38;36.00;;;5.70;99.90;;;;;;5134475;27;20055;-77
2022/01/16 10:49:01;;;;;;;54.45;33.13;;;5.70;99.90;;;;;;5127995;27;20050;-77
2022/01/16 10:51:27;;;;;;;59.08;33.33;;;5.60;99.90;;;;;;5150313;27;20058;-77
2022/01/16 10:53:54;;;;;;;65.75;32.50;;;5.70;99.90;;;;;;5131662;27;20051;-77
2022/01/16 10:56:20;;;;;;;55.47;31.90;;;5.70;99.90;;;;;;5146280;27;20058;-77
2022/01/16 10:58:49;;;;;;;55.72;34.40;;;5.70;99.90;;;;;;5148536;27;20043;-77
2022/01/16 11:01:16;;;;;;;69.20;36.17;;;5.70;99.90;;;;;;5148879;27;20039;-77
2022/01/16 11:03:44;;;;;;;61.65;34.20;;;5.70;99.90;;;;;;5149429;27;20081;-77
2022/01/16 11:06:10;;;;;;;63.42;35.35;;;5.70;99.90;;;;;;5129277;27;20114;-77
2022/01/16 11:08:37;;;;;;;61.65;33.53;;;5.80;99.90;;;;;;5148264;27;20050;-77
2022/01/16 11:11:03;;;;;;;59.08;32.25;;;5.80;99.90;;;;;;5130441;27;20055;-77
2022/01/16 11:13:32;;;;;;;57.28;33.60;;;5.80;99.90;;;;;;5114167;27;20074;-77
2022/01/16 11:15:59;;;;;;;51.13;31.05;;;5.80;99.90;;;;;;5148065;27;20046;-78
2022/01/16 11:18:25;;;;;;;66.40;33.40;;;5.80;99.90;;;;;;5148055;27;20049;-77
2022/01/16 11:20:57;;;;;;;59.28;32.13;;;5.80;99.90;;;;;;5147352;27;20047;-77
2022/01/16 11:23:32;;;;;;;57.20;31.15;;;5.90;99.90;;;;;;5140944;27;20054;-77
2022/01/16 11:25:59;;;;;;;51.67;31.40;;;5.90;99.90;;;;;;5117498;27;20065;-78
2022/01/16 11:28:25;;;;;;;61.60;29.02;;;5.90;99.90;;;;;;5119920;27;20043;-77
2022/01/16 11:30:52;;;;;;;47.22;29.40;;;6.00;99.90;;;;;;5123456;27;20457;-77
2022/01/16 11:33:18;;;;;;;55.60;30.42;;;6.10;99.90;;;;;;5149356;27;20664;-77
2022/01/16 11:35:45;;;;;;;55.72;31.75;;;6.10;99.90;;;;;;5127750;27;20058;-77
2022/01/16 11:38:11;;;;;;;53.17;27.55;;;6.10;99.90;;;;;;5129222;27;20063;-77
2022/01/16 11:40:48;;;;;;;53.05;26.80;;;6.20;99.90;;;;;;5137097;27;20082;-77
2022/01/16 11:43:14;;;;;;;56.03;26.90;;;6.20;99.90;;;;;;5137257;27;20065;-77
2022/01/16 11:45:41;;;;;;;43.00;25.10;;;6.20;99.90;;;;;;5130650;27;20043;-77
2022/01/16 11:48:07;;;;;;;49.65;26.48;;;6.20;99.90;;;;;;5142362;27;20499;-76
2022/01/16 11:50:34;;;;;;;48.03;25.35;;;6.30;99.90;;;;;;5122218;27;20521;-77
2022/01/16 11:53:00;;;;;;;46.97;27.35;;;6.20;99.90;;;;;;5135616;27;20486;-77
2022/01/16 11:55:27;;;;;;;41.38;23.60;;;6.30;99.90;;;;;;5119252;27;20529;-77
2022/01/16 11:57:53;;;;;;;38.70;25.08;;;6.30;99.90;;;;;;5130025;27;20485;-77
2022/01/16 12:00:20;;;;;;;44.08;25.15;;;6.30;99.90;;;;;;5136844;27;20684;-77
2022/01/16 12:02:48;;;;;;;49.85;26.25;;;6.40;99.90;;;;;;5116046;27;20470;-77
2022/01/16 12:05:15;;;;;;;41.28;23.15;;;6.40;99.90;;;;;;5126202;27;20117;-77
2022/01/16 12:07:45;;;;;;;42.40;22.70;;;6.40;99.90;;;;;;5139782;27;20047;-77
2022/01/16 12:10:12;;;;;;;38.83;23.98;;;6.40;99.90;;;;;;5110590;27;20427;-77
2022/01/16 12:12:38;;;;;;;41.25;22.63;;;6.40;99.90;;;;;;5111537;27;20375;-77
2022/01/16 12:15:05;;;;;;;38.20;22.20;;;6.50;99.90;;;;;;5143542;27;20038;-77
2022/01/16 12:17:31;;;;;;;46.22;22.15;;;6.50;99.90;;;;;;5118610;27;20092;-77
2022/01/16 12:19:58;;;;;;;37.95;22.05;;;6.40;99.90;;;;;;5129534;27;20055;-77
2022/01/16 12:22:24;;;;;;;36.58;20.05;;;6.40;99.90;;;;;;5121246;27;20090;-77
2022/01/16 12:24:51;;;;;;;34.22;19.70;;;6.50;99.90;;;;;;5134573;27;20047;-77
2022/01/16 12:27:17;;;;;;;38.50;19.65;;;6.40;99.90;;;;;;5124027;27;20048;-77
2022/01/16 12:29:44;;;;;;;34.55;18.80;;;6.50;99.90;;;;;;5147194;27;20054;-77
2022/01/16 12:32:10;;;;;;;46.13;18.75;;;6.50;99.90;;;;;;5118740;27;20051;-77
2022/01/16 12:34:37;;;;;;;36.25;18.67;;;6.50;99.90;;;;;;5116045;27;20067;-77
2022/01/16 12:37:03;;;;;;;26.88;16.30;;;6.50;99.90;;;;;;5133669;27;20051;-77
2022/01/16 12:39:30;;;;;;;35.00;17.85;;;6.50;99.90;;;;;;5134246;27;20051;-77
2022/01/16 12:41:57;;;;;;;40.53;18.90;;;6.50;99.90;;;;;;5114596;27;20095;-77
2022/01/16 12:44:23;;;;;;;26.48;16.17;;;6.50;99.90;;;;;;5137475;27;20565;-77
2022/01/16 12:46:51;;;;;;;37.08;17.00;;;6.50;99.90;;;;;;5148636;27;20050;-77
2022/01/16 12:49:17;;;;;;;28.35;15.10;;;6.50;99.90;;;;;;5143920;27;20054;-76
2022/01/16 12:51:44;;;;;;;30.02;15.98;;;6.50;99.90;;;;;;5120510;27;20372;-77
2022/01/16 12:54:11;;;;;;;34.92;15.18;;;6.50;99.90;;;;;;5126595;27;20054;-77
2022/01/16 12:56:38;;;;;;;31.85;15.80;;;6.50;99.90;;;;;;5132772;27;20078;-77
2022/01/16 12:59:05;;;;;;;31.02;13.70;;;6.50;99.90;;;;;;5142907;27;20051;-76
2022/01/16 13:01:32;;;;;;;22.85;14.18;;;6.50;99.90;;;;;;5152679;27;20489;-77
2022/01/16 13:03:58;;;;;;;25.20;13.65;;;6.50;99.90;;;;;;5123843;27;20062;-76
2022/01/16 13:06:26;;;;;;;21.45;13.60;;;6.50;99.90;;;;;;5136921;27;20061;-77
2022/01/16 13:08:52;;;;;;;24.58;12.57;;;6.50;99.90;;;;;;5129648;27;20108;-77